sensor_id;sensor_type;location;lat;lon;timestamp;P1;durP1;ratioP1;P2;durP2;ratioP2
17604;SDS011;8921;50.964;6.800;2023-03-14T00:00:07;8.40;;;2.00;;
17604;SDS011;8921;50.964;6.800;2023-03-14T00:02:37;7.60;;;2.00;;
17604;SDS011;8921;50.964;6.800;2023-03-14T00:05:05;5.67;;;1.60;;
17604;SDS011;8921;50.964;6.800;2023-03-14T00:07:34;5.83;;;1.50;;
17604;SDS011;8921;50.964;6.800;2023-03-14T00:10:03;7.50;;;3.23;;
17604;SDS011;8921;50.964;6.800;2023-03-14T00:12:30;11.37;;;2.60;;
17604;SDS011;8921;50.964;6.800;2023-03-14T00:14:58;6.13;;;1.77;;
17604;SDS011;8921;50.964;6.800;2023-03-14T00:17:26;9.47;;;2.10;;
17604;SDS011;8921;50.964;6.800;2023-03-14T00:19:55;7.90;;;1.87;;
17604;SDS011;8921;50.964;6.800;2023-03-14T00:22:23;6.70;;;2.00;;
17604;SDS011;8921;50.964;6.800;2023-03-14T00:24:51;8.00;;;1.90;;
17604;SDS011;8921;50.964;6.800;2023-03-14T00:27:19;7.53;;;1.70;;
17604;SDS011;8921;50.964;6.800;2023-03-14T00:29:48;8.07;;;1.97;;
17604;SDS011;8921;50.964;6.800;2023-03-14T00:32:16;7.33;;;1.87;;
17604;SDS011;8921;50.964;6.800;2023-03-14T00:34:44;15.23;;;2.63;;
17604;SDS011;8921;50.964;6.800;2023-03-14T00:37:12;5.70;;;1.70;;
17604;SDS011;8921;50.964;6.800;2023-03-14T00:39:41;7.63;;;2.60;;
17604;SDS011;8921;50.964;6.800;2023-03-14T00:42:09;7.77;;;1.87;;
17604;SDS011;8921;50.964;6.800;2023-03-14T00:44:37;11.90;;;2.40;;
17604;SDS011;8921;50.964;6.800;2023-03-14T00:47:06;3.80;;;1.33;;
17604;SDS011;8921;50.964;6.800;2023-03-14T00:49:34;8.13;;;1.73;;
17604;SDS011;8921;50.964;6.800;2023-03-14T00:52:02;11.10;;;2.70;;
17604;SDS011;8921;50.964;6.800;2023-03-14T00:54:30;5.03;;;1.70;;
17604;SDS011;8921;50.964;6.800;2023-03-14T00:56:59;6.20;;;2.10;;
17604;SDS011;8921;50.964;6.800;2023-03-14T00:59:27;9.57;;;2.47;;
17604;SDS011;8921;50.964;6.800;2023-03-14T01:01:55;7.60;;;2.60;;
17604;SDS011;8921;50.964;6.800;2023-03-14T01:04:23;6.10;;;2.37;;
17604;SDS011;8921;50.964;6.800;2023-03-14T01:06:52;7.17;;;2.20;;
17604;SDS011;8921;50.964;6.800;2023-03-14T01:09:20;6.87;;;2.70;;
17604;SDS011;8921;50.964;6.800;2023-03-14T01:11:48;6.67;;;1.67;;
17604;SDS011;8921;50.964;6.800;2023-03-14T01:14:16;8.80;;;2.00;;
17604;SDS011;8921;50.964;6.800;2023-03-14T01:16:45;6.50;;;2.80;;
17604;SDS011;8921;50.964;6.800;2023-03-14T01:19:13;6.30;;;1.33;;
17604;SDS011;8921;50.964;6.800;2023-03-14T01:21:41;7.27;;;1.20;;
17604;SDS011;8921;50.964;6.800;2023-03-14T01:24:10;6.57;;;1.27;;
17604;SDS011;8921;50.964;6.800;2023-03-14T01:26:38;9.37;;;4.83;;
17604;SDS011;8921;50.964;6.800;2023-03-14T01:29:06;7.00;;;1.50;;
17604;SDS011;8921;50.964;6.800;2023-03-14T01:31:34;7.67;;;1.63;;
17604;SDS011;8921;50.964;6.800;2023-03-14T01:34:03;5.27;;;1.37;;
17604;SDS011;8921;50.964;6.800;2023-03-14T01:36:31;7.03;;;1.60;;
17604;SDS011;8921;50.964;6.800;2023-03-14T01:38:59;2.90;;;1.20;;
17604;SDS011;8921;50.964;6.800;2023-03-14T01:41:27;5.00;;;1.30;;
17604;SDS011;8921;50.964;6.800;2023-03-14T01:43:56;7.57;;;1.70;;
17604;SDS011;8921;50.964;6.800;2023-03-14T01:46:28;4.87;;;2.03;;
17604;SDS011;8921;50.964;6.800;2023-03-14T01:49:09;4.70;;;1.50;;
17604;SDS011;8921;50.964;6.800;2023-03-14T01:51:53;9.27;;;1.53;;
17604;SDS011;8921;50.964;6.800;2023-03-14T01:54:26;5.43;;;1.50;;
17604;SDS011;8921;50.964;6.800;2023-03-14T01:56:54;4.93;;;1.23;;
17604;SDS011;8921;50.964;6.800;2023-03-14T01:59:21;4.57;;;2.70;;
17604;SDS011;8921;50.964;6.800;2023-03-14T02:01:49;8.03;;;1.30;;
17604;SDS011;8921;50.964;6.800;2023-03-14T02:04:18;4.30;;;1.10;;
17604;SDS011;8921;50.964;6.800;2023-03-14T02:09:26;6.13;;;1.23;;
17604;SDS011;8921;50.964;6.800;2023-03-14T02:11:55;7.10;;;1.50;;
17604;SDS011;8921;50.964;6.800;2023-03-14T02:14:33;5.33;;;1.33;;
17604;SDS011;8921;50.964;6.800;2023-03-14T02:17:01;4.50;;;1.57;;
17604;SDS011;8921;50.964;6.800;2023-03-14T02:19:32;5.47;;;1.27;;
17604;SDS011;8921;50.964;6.800;2023-03-14T02:24:46;5.50;;;1.37;;
17604;SDS011;8921;50.964;6.800;2023-03-14T02:29:45;3.53;;;1.00;;
17604;SDS011;8921;50.964;6.800;2023-03-14T02:32:11;4.50;;;1.30;;
17604;SDS011;8921;50.964;6.800;2023-03-14T02:34:39;3.63;;;1.07;;
17604;SDS011;8921;50.964;6.800;2023-03-14T02:37:07;5.10;;;1.20;;
17604;SDS011;8921;50.964;6.800;2023-03-14T02:39:39;3.23;;;1.13;;
17604;SDS011;8921;50.964;6.800;2023-03-14T02:42:06;4.30;;;1.20;;
17604;SDS011;8921;50.964;6.800;2023-03-14T02:44:35;3.93;;;1.40;;
17604;SDS011;8921;50.964;6.800;2023-03-14T02:47:03;3.80;;;1.10;;
17604;SDS011;8921;50.964;6.800;2023-03-14T02:49:31;4.97;;;1.30;;
17604;SDS011;8921;50.964;6.800;2023-03-14T02:52:00;5.10;;;1.20;;
17604;SDS011;8921;50.964;6.800;2023-03-14T02:54:28;3.60;;;1.23;;
17604;SDS011;8921;50.964;6.800;2023-03-14T02:56:56;4.60;;;1.33;;
17604;SDS011;8921;50.964;6.800;2023-03-14T02:59:24;4.13;;;1.33;;
17604;SDS011;8921;50.964;6.800;2023-03-14T03:01:53;4.30;;;1.20;;
17604;SDS011;8921;50.964;6.800;2023-03-14T03:04:21;7.17;;;1.70;;
17604;SDS011;8921;50.964;6.800;2023-03-14T03:06:49;5.73;;;1.27;;
17604;SDS011;8921;50.964;6.800;2023-03-14T03:09:18;5.67;;;1.60;;
17604;SDS011;8921;50.964;6.800;2023-03-14T03:11:46;7.67;;;2.20;;
17604;SDS011;8921;50.964;6.800;2023-03-14T03:14:14;6.40;;;1.60;;
17604;SDS011;8921;50.964;6.800;2023-03-14T03:16:43;6.77;;;1.50;;
17604;SDS011;8921;50.964;6.800;2023-03-14T03:19:11;4.50;;;1.30;;
17604;SDS011;8921;50.964;6.800;2023-03-14T03:21:39;6.10;;;1.70;;
17604;SDS011;8921;50.964;6.800;2023-03-14T03:24:07;7.30;;;2.00;;
17604;SDS011;8921;50.964;6.800;2023-03-14T03:26:36;5.90;;;1.50;;
17604;SDS011;8921;50.964;6.800;2023-03-14T03:29:04;3.13;;;1.30;;
17604;SDS011;8921;50.964;6.800;2023-03-14T03:31:32;6.73;;;1.87;;
17604;SDS011;8921;50.964;6.800;2023-03-14T03:34:01;7.23;;;2.27;;
17604;SDS011;8921;50.964;6.800;2023-03-14T03:36:29;4.60;;;1.27;;
17604;SDS011;8921;50.964;6.800;2023-03-14T03:38:57;9.00;;;1.60;;
17604;SDS011;8921;50.964;6.800;2023-03-14T03:41:26;12.23;;;2.03;;
17604;SDS011;8921;50.964;6.800;2023-03-14T03:43:54;6.17;;;1.67;;
17604;SDS011;8921;50.964;6.800;2023-03-14T03:46:22;15.33;;;1.87;;
17604;SDS011;8921;50.964;6.800;2023-03-14T03:48:56;5.47;;;2.00;;
17604;SDS011;8921;50.964;6.800;2023-03-14T03:51:25;5.90;;;1.80;;
17604;SDS011;8921;50.964;6.800;2023-03-14T03:53:53;9.13;;;1.63;;
17604;SDS011;8921;50.964;6.800;2023-03-14T03:56:21;7.93;;;1.80;;
17604;SDS011;8921;50.964;6.800;2023-03-14T03:58:49;9.03;;;1.87;;
17604;SDS011;8921;50.964;6.800;2023-03-14T04:01:18;5.83;;;1.77;;
17604;SDS011;8921;50.964;6.800;2023-03-14T04:03:46;6.60;;;1.90;;
17604;SDS011;8921;50.964;6.800;2023-03-14T04:06:14;11.20;;;1.63;;
17604;SDS011;8921;50.964;6.800;2023-03-14T04:08:43;6.77;;;1.63;;
17604;SDS011;8921;50.964;6.800;2023-03-14T04:11:11;6.73;;;1.93;;
17604;SDS011;8921;50.964;6.800;2023-03-14T04:13:39;8.47;;;1.80;;
17604;SDS011;8921;50.964;6.800;2023-03-14T04:16:15;8.23;;;2.33;;
17604;SDS011;8921;50.964;6.800;2023-03-14T04:18:42;6.03;;;1.77;;
17604;SDS011;8921;50.964;6.800;2023-03-14T04:21:10;6.40;;;1.50;;
17604;SDS011;8921;50.964;6.800;2023-03-14T04:23:38;6.10;;;1.50;;
17604;SDS011;8921;50.964;6.800;2023-03-14T04:26:07;5.70;;;1.60;;
17604;SDS011;8921;50.964;6.800;2023-03-14T04:28:35;9.13;;;1.83;;
17604;SDS011;8921;50.964;6.800;2023-03-14T04:31:10;8.30;;;2.80;;
17604;SDS011;8921;50.964;6.800;2023-03-14T04:33:38;6.57;;;2.47;;
17604;SDS011;8921;50.964;6.800;2023-03-14T04:36:06;6.07;;;1.90;;
17604;SDS011;8921;50.964;6.800;2023-03-14T04:38:35;4.73;;;1.60;;
17604;SDS011;8921;50.964;6.800;2023-03-14T04:41:03;5.67;;;2.37;;
17604;SDS011;8921;50.964;6.800;2023-03-14T04:43:31;6.03;;;2.27;;
17604;SDS011;8921;50.964;6.800;2023-03-14T04:45:59;7.57;;;2.73;;
17604;SDS011;8921;50.964;6.800;2023-03-14T04:48:28;6.90;;;1.73;;
17604;SDS011;8921;50.964;6.800;2023-03-14T04:50:56;5.33;;;1.63;;
17604;SDS011;8921;50.964;6.800;2023-03-14T04:53:24;5.77;;;1.20;;
17604;SDS011;8921;50.964;6.800;2023-03-14T04:55:53;5.27;;;1.40;;
17604;SDS011;8921;50.964;6.800;2023-03-14T04:58:21;2.80;;;1.00;;
17604;SDS011;8921;50.964;6.800;2023-03-14T05:00:49;3.60;;;1.10;;
17604;SDS011;8921;50.964;6.800;2023-03-14T05:03:18;3.93;;;1.57;;
17604;SDS011;8921;50.964;6.800;2023-03-14T05:05:46;4.80;;;1.80;;
17604;SDS011;8921;50.964;6.800;2023-03-14T05:08:14;3.33;;;1.27;;
17604;SDS011;8921;50.964;6.800;2023-03-14T05:10:42;4.90;;;1.50;;
17604;SDS011;8921;50.964;6.800;2023-03-14T05:13:11;7.60;;;2.20;;
17604;SDS011;8921;50.964;6.800;2023-03-14T05:15:39;5.53;;;1.20;;
17604;SDS011;8921;50.964;6.800;2023-03-14T05:18:07;5.27;;;1.30;;
17604;SDS011;8921;50.964;6.800;2023-03-14T05:20:36;4.20;;;1.00;;
17604;SDS011;8921;50.964;6.800;2023-03-14T05:23:04;9.50;;;1.00;;
17604;SDS011;8921;50.964;6.800;2023-03-14T05:25:32;5.60;;;1.00;;
17604;SDS011;8921;50.964;6.800;2023-03-14T05:28:00;2.50;;;0.90;;
17604;SDS011;8921;50.964;6.800;2023-03-14T05:30:29;4.83;;;1.10;;
17604;SDS011;8921;50.964;6.800;2023-03-14T05:32:57;2.50;;;0.83;;
17604;SDS011;8921;50.964;6.800;2023-03-14T05:35:26;2.87;;;0.90;;
17604;SDS011;8921;50.964;6.800;2023-03-14T05:37:54;2.30;;;0.80;;
17604;SDS011;8921;50.964;6.800;2023-03-14T05:40:22;3.03;;;1.03;;
17604;SDS011;8921;50.964;6.800;2023-03-14T05:42:51;2.57;;;0.90;;
17604;SDS011;8921;50.964;6.800;2023-03-14T05:45:19;2.40;;;0.80;;
17604;SDS011;8921;50.964;6.800;2023-03-14T05:47:47;2.93;;;0.80;;
17604;SDS011;8921;50.964;6.800;2023-03-14T05:50:15;4.43;;;1.20;;
17604;SDS011;8921;50.964;6.800;2023-03-14T05:52:44;5.30;;;1.43;;
17604;SDS011;8921;50.964;6.800;2023-03-14T05:55:12;2.87;;;1.20;;
17604;SDS011;8921;50.964;6.800;2023-03-14T05:57:40;3.73;;;1.23;;
17604;SDS011;8921;50.964;6.800;2023-03-14T06:00:09;3.17;;;0.90;;
17604;SDS011;8921;50.964;6.800;2023-03-14T06:05:16;4.63;;;1.10;;
17604;SDS011;8921;50.964;6.800;2023-03-14T06:07:44;3.30;;;1.20;;
17604;SDS011;8921;50.964;6.800;2023-03-14T06:10:12;3.00;;;1.10;;
17604;SDS011;8921;50.964;6.800;2023-03-14T06:12:41;3.73;;;0.97;;
17604;SDS011;8921;50.964;6.800;2023-03-14T06:15:09;3.00;;;0.90;;
17604;SDS011;8921;50.964;6.800;2023-03-14T06:17:37;13.03;;;1.67;;
17604;SDS011;8921;50.964;6.800;2023-03-14T06:20:06;4.10;;;0.90;;
17604;SDS011;8921;50.964;6.800;2023-03-14T06:22:34;2.40;;;0.90;;
17604;SDS011;8921;50.964;6.800;2023-03-14T06:25:03;3.63;;;0.90;;
17604;SDS011;8921;50.964;6.800;2023-03-14T06:27:31;5.00;;;1.07;;
17604;SDS011;8921;50.964;6.800;2023-03-14T06:29:59;2.70;;;1.00;;
17604;SDS011;8921;50.964;6.800;2023-03-14T06:32:27;6.10;;;2.40;;
17604;SDS011;8921;50.964;6.800;2023-03-14T06:34:56;7.70;;;3.70;;
17604;SDS011;8921;50.964;6.800;2023-03-14T06:37:24;4.40;;;1.90;;
17604;SDS011;8921;50.964;6.800;2023-03-14T06:39:52;3.13;;;1.00;;
17604;SDS011;8921;50.964;6.800;2023-03-14T06:42:21;4.47;;;1.73;;
17604;SDS011;8921;50.964;6.800;2023-03-14T06:44:49;9.00;;;1.20;;
17604;SDS011;8921;50.964;6.800;2023-03-14T06:47:17;2.80;;;0.80;;
17604;SDS011;8921;50.964;6.800;2023-03-14T06:49:46;3.80;;;0.93;;
17604;SDS011;8921;50.964;6.800;2023-03-14T06:52:14;3.43;;;0.83;;
17604;SDS011;8921;50.964;6.800;2023-03-14T06:54:42;2.60;;;0.77;;
17604;SDS011;8921;50.964;6.800;2023-03-14T06:57:10;2.97;;;0.97;;
17604;SDS011;8921;50.964;6.800;2023-03-14T06:59:39;2.50;;;0.80;;
17604;SDS011;8921;50.964;6.800;2023-03-14T07:02:09;2.53;;;0.80;;
17604;SDS011;8921;50.964;6.800;2023-03-14T07:04:35;2.70;;;0.90;;
17604;SDS011;8921;50.964;6.800;2023-03-14T07:07:04;7.73;;;0.90;;
17604;SDS011;8921;50.964;6.800;2023-03-14T07:09:32;4.17;;;1.30;;
17604;SDS011;8921;50.964;6.800;2023-03-14T07:12:00;6.20;;;3.00;;
17604;SDS011;8921;50.964;6.800;2023-03-14T07:14:29;3.23;;;1.10;;
17604;SDS011;8921;50.964;6.800;2023-03-14T07:16:57;3.00;;;0.97;;
17604;SDS011;8921;50.964;6.800;2023-03-14T07:19:25;2.80;;;0.80;;
17604;SDS011;8921;50.964;6.800;2023-03-14T07:21:54;2.60;;;0.83;;
17604;SDS011;8921;50.964;6.800;2023-03-14T07:24:22;3.90;;;0.90;;
17604;SDS011;8921;50.964;6.800;2023-03-14T07:26:50;2.60;;;0.80;;
17604;SDS011;8921;50.964;6.800;2023-03-14T07:29:19;3.43;;;0.90;;
17604;SDS011;8921;50.964;6.800;2023-03-14T07:31:47;2.57;;;0.90;;
17604;SDS011;8921;50.964;6.800;2023-03-14T07:34:15;2.50;;;0.90;;
17604;SDS011;8921;50.964;6.800;2023-03-14T07:36:43;4.20;;;1.00;;
17604;SDS011;8921;50.964;6.800;2023-03-14T07:39:12;2.90;;;0.90;;
17604;SDS011;8921;50.964;6.800;2023-03-14T07:41:40;2.60;;;0.90;;
17604;SDS011;8921;50.964;6.800;2023-03-14T07:44:08;2.90;;;0.90;;
17604;SDS011;8921;50.964;6.800;2023-03-14T07:46:37;3.40;;;2.20;;
17604;SDS011;8921;50.964;6.800;2023-03-14T07:49:05;4.40;;;1.50;;
17604;SDS011;8921;50.964;6.800;2023-03-14T07:51:33;6.50;;;2.60;;
17604;SDS011;8921;50.964;6.800;2023-03-14T07:54:02;2.80;;;0.90;;
17604;SDS011;8921;50.964;6.800;2023-03-14T07:56:30;5.20;;;1.90;;
17604;SDS011;8921;50.964;6.800;2023-03-14T07:58:58;3.73;;;1.10;;
17604;SDS011;8921;50.964;6.800;2023-03-14T08:01:27;2.90;;;1.10;;
17604;SDS011;8921;50.964;6.800;2023-03-14T08:03:55;2.40;;;0.80;;
17604;SDS011;8921;50.964;6.800;2023-03-14T08:06:23;2.90;;;0.93;;
17604;SDS011;8921;50.964;6.800;2023-03-14T08:08:51;11.53;;;5.93;;
17604;SDS011;8921;50.964;6.800;2023-03-14T08:11:20;4.20;;;1.50;;
17604;SDS011;8921;50.964;6.800;2023-03-14T08:13:48;4.33;;;1.80;;
17604;SDS011;8921;50.964;6.800;2023-03-14T08:16:16;3.73;;;1.63;;
17604;SDS011;8921;50.964;6.800;2023-03-14T08:18:45;2.87;;;1.13;;
17604;SDS011;8921;50.964;6.800;2023-03-14T08:21:13;4.53;;;1.90;;
17604;SDS011;8921;50.964;6.800;2023-03-14T08:23:41;5.20;;;1.93;;
17604;SDS011;8921;50.964;6.800;2023-03-14T08:26:09;3.23;;;1.20;;
17604;SDS011;8921;50.964;6.800;2023-03-14T08:28:38;2.60;;;0.90;;
17604;SDS011;8921;50.964;6.800;2023-03-14T08:31:06;3.20;;;1.07;;
17604;SDS011;8921;50.964;6.800;2023-03-14T08:33:34;3.43;;;0.90;;
17604;SDS011;8921;50.964;6.800;2023-03-14T08:36:03;3.47;;;0.90;;
17604;SDS011;8921;50.964;6.800;2023-03-14T08:38:31;2.50;;;0.87;;
17604;SDS011;8921;50.964;6.800;2023-03-14T08:41:00;3.00;;;0.90;;
17604;SDS011;8921;50.964;6.800;2023-03-14T08:43:28;2.90;;;1.00;;
17604;SDS011;8921;50.964;6.800;2023-03-14T08:45:59;5.20;;;1.10;;
17604;SDS011;8921;50.964;6.800;2023-03-14T08:48:27;3.27;;;1.00;;
17604;SDS011;8921;50.964;6.800;2023-03-14T08:51:08;3.80;;;1.23;;
17604;SDS011;8921;50.964;6.800;2023-03-14T08:53:36;3.87;;;1.00;;
17604;SDS011;8921;50.964;6.800;2023-03-14T08:56:04;5.10;;;1.67;;
17604;SDS011;8921;50.964;6.800;2023-03-14T08:58:33;5.90;;;1.10;;
17604;SDS011;8921;50.964;6.800;2023-03-14T09:01:01;2.70;;;1.10;;
17604;SDS011;8921;50.964;6.800;2023-03-14T09:03:29;4.07;;;1.60;;
17604;SDS011;8921;50.964;6.800;2023-03-14T09:06:01;8.17;;;3.67;;
17604;SDS011;8921;50.964;6.800;2023-03-14T09:08:26;12.37;;;5.93;;
17604;SDS011;8921;50.964;6.800;2023-03-14T09:10:54;3.93;;;1.53;;
17604;SDS011;8921;50.964;6.800;2023-03-14T09:13:22;4.33;;;1.40;;
17604;SDS011;8921;50.964;6.800;2023-03-14T09:15:53;3.00;;;1.10;;
17604;SDS011;8921;50.964;6.800;2023-03-14T09:18:19;6.97;;;4.40;;
17604;SDS011;8921;50.964;6.800;2023-03-14T09:20:47;5.37;;;2.50;;
17604;SDS011;8921;50.964;6.800;2023-03-14T09:23:15;4.13;;;1.50;;
17604;SDS011;8921;50.964;6.800;2023-03-14T09:25:44;4.30;;;1.67;;
17604;SDS011;8921;50.964;6.800;2023-03-14T09:28:12;3.90;;;1.07;;
17604;SDS011;8921;50.964;6.800;2023-03-14T09:30:40;3.27;;;1.33;;
17604;SDS011;8921;50.964;6.800;2023-03-14T09:33:09;3.07;;;1.20;;
17604;SDS011;8921;50.964;6.800;2023-03-14T09:35:37;3.00;;;1.00;;
17604;SDS011;8921;50.964;6.800;2023-03-14T09:38:05;3.00;;;1.07;;
17604;SDS011;8921;50.964;6.800;2023-03-14T09:40:34;2.77;;;1.00;;
17604;SDS011;8921;50.964;6.800;2023-03-14T09:43:02;3.20;;;1.47;;
17604;SDS011;8921;50.964;6.800;2023-03-14T09:45:31;3.90;;;1.27;;
17604;SDS011;8921;50.964;6.800;2023-03-14T09:48:04;3.00;;;1.20;;
17604;SDS011;8921;50.964;6.800;2023-03-14T09:53:14;5.17;;;1.93;;
17604;SDS011;8921;50.964;6.800;2023-03-14T09:55:42;3.30;;;1.43;;
17604;SDS011;8921;50.964;6.800;2023-03-14T09:58:12;5.00;;;1.50;;
17604;SDS011;8921;50.964;6.800;2023-03-14T10:00:38;3.77;;;1.40;;
17604;SDS011;8921;50.964;6.800;2023-03-14T10:05:41;3.47;;;1.47;;
17604;SDS011;8921;50.964;6.800;2023-03-14T10:08:09;5.43;;;1.60;;
17604;SDS011;8921;50.964;6.800;2023-03-14T10:10:38;3.87;;;1.90;;
17604;SDS011;8921;50.964;6.800;2023-03-14T10:15:46;3.97;;;1.80;;
17604;SDS011;8921;50.964;6.800;2023-03-14T10:18:12;3.70;;;1.83;;
17604;SDS011;8921;50.964;6.800;2023-03-14T10:20:40;3.60;;;1.87;;
17604;SDS011;8921;50.964;6.800;2023-03-14T10:25:40;3.27;;;1.33;;
17604;SDS011;8921;50.964;6.800;2023-03-14T10:28:23;3.97;;;1.40;;
17604;SDS011;8921;50.964;6.800;2023-03-14T10:30:57;3.43;;;1.40;;
17604;SDS011;8921;50.964;6.800;2023-03-14T10:36:03;5.37;;;1.47;;
17604;SDS011;8921;50.964;6.800;2023-03-14T10:38:40;4.70;;;1.40;;
17604;SDS011;8921;50.964;6.800;2023-03-14T10:41:19;4.43;;;2.20;;
17604;SDS011;8921;50.964;6.800;2023-03-14T10:43:55;2.93;;;1.30;;
17604;SDS011;8921;50.964;6.800;2023-03-14T10:46:23;3.10;;;1.20;;
17604;SDS011;8921;50.964;6.800;2023-03-14T10:48:51;3.10;;;1.33;;
17604;SDS011;8921;50.964;6.800;2023-03-14T10:51:22;5.30;;;1.53;;
17604;SDS011;8921;50.964;6.800;2023-03-14T10:53:48;3.40;;;1.67;;
17604;SDS011;8921;50.964;6.800;2023-03-14T10:56:19;5.50;;;2.83;;
17604;SDS011;8921;50.964;6.800;2023-03-14T10:58:50;3.30;;;1.60;;
17604;SDS011;8921;50.964;6.800;2023-03-14T11:04:04;8.50;;;1.77;;
17604;SDS011;8921;50.964;6.800;2023-03-14T11:09:36;7.80;;;2.47;;
17604;SDS011;8921;50.964;6.800;2023-03-14T11:12:29;4.03;;;2.23;;
17604;SDS011;8921;50.964;6.800;2023-03-14T11:14:49;5.10;;;2.47;;
17604;SDS011;8921;50.964;6.800;2023-03-14T11:17:20;4.30;;;2.10;;
17604;SDS011;8921;50.964;6.800;2023-03-14T11:22:34;4.03;;;1.90;;
17604;SDS011;8921;50.964;6.800;2023-03-14T11:30:15;4.40;;;2.03;;
17604;SDS011;8921;50.964;6.800;2023-03-14T11:35:33;4.53;;;1.73;;
17604;SDS011;8921;50.964;6.800;2023-03-14T11:40:42;3.07;;;1.20;;
17604;SDS011;8921;50.964;6.800;2023-03-14T11:43:46;3.83;;;1.00;;
17604;SDS011;8921;50.964;6.800;2023-03-14T11:45:50;4.80;;;1.10;;
17604;SDS011;8921;50.964;6.800;2023-03-14T11:48:38;3.30;;;1.10;;
17604;SDS011;8921;50.964;6.800;2023-03-14T11:51:07;2.63;;;1.00;;
17604;SDS011;8921;50.964;6.800;2023-03-14T11:53:44;4.80;;;1.20;;
17604;SDS011;8921;50.964;6.800;2023-03-14T11:56:10;3.63;;;1.20;;
17604;SDS011;8921;50.964;6.800;2023-03-14T11:58:36;3.13;;;1.23;;
17604;SDS011;8921;50.964;6.800;2023-03-14T12:01:06;5.00;;;1.80;;
17604;SDS011;8921;50.964;6.800;2023-03-14T12:06:17;3.73;;;1.40;;
17604;SDS011;8921;50.964;6.800;2023-03-14T12:08:50;3.83;;;1.60;;
17604;SDS011;8921;50.964;6.800;2023-03-14T12:16:53;3.47;;;1.63;;
17604;SDS011;8921;50.964;6.800;2023-03-14T12:21:59;6.10;;;1.40;;
17604;SDS011;8921;50.964;6.800;2023-03-14T12:24:27;3.80;;;1.33;;
17604;SDS011;8921;50.964;6.800;2023-03-14T12:26:55;5.47;;;1.53;;
17604;SDS011;8921;50.964;6.800;2023-03-14T12:29:23;4.00;;;2.13;;
17604;SDS011;8921;50.964;6.800;2023-03-14T12:34:30;4.23;;;1.30;;
17604;SDS011;8921;50.964;6.800;2023-03-14T12:39:43;4.03;;;1.30;;
17604;SDS011;8921;50.964;6.800;2023-03-14T12:50:43;3.30;;;1.13;;
17604;SDS011;8921;50.964;6.800;2023-03-14T12:53:16;5.53;;;1.30;;
17604;SDS011;8921;50.964;6.800;2023-03-14T13:01:00;4.43;;;1.40;;
17604;SDS011;8921;50.964;6.800;2023-03-14T13:03:42;3.20;;;1.27;;
17604;SDS011;8921;50.964;6.800;2023-03-14T13:06:08;4.40;;;1.50;;
17604;SDS011;8921;50.964;6.800;2023-03-14T13:08:37;10.30;;;1.60;;
17604;SDS011;8921;50.964;6.800;2023-03-14T13:11:20;5.47;;;1.60;;
17604;SDS011;8921;50.964;6.800;2023-03-14T13:13:49;4.07;;;1.40;;
17604;SDS011;8921;50.964;6.800;2023-03-14T13:16:17;5.23;;;1.30;;
17604;SDS011;8921;50.964;6.800;2023-03-14T13:18:46;4.80;;;1.77;;
17604;SDS011;8921;50.964;6.800;2023-03-14T13:21:19;5.83;;;1.60;;
17604;SDS011;8921;50.964;6.800;2023-03-14T13:24:03;7.60;;;1.73;;
17604;SDS011;8921;50.964;6.800;2023-03-14T13:26:39;6.93;;;1.80;;
17604;SDS011;8921;50.964;6.800;2023-03-14T13:31:45;5.80;;;1.70;;
17604;SDS011;8921;50.964;6.800;2023-03-14T13:34:12;5.70;;;1.60;;
17604;SDS011;8921;50.964;6.800;2023-03-14T13:36:41;15.33;;;2.20;;
17604;SDS011;8921;50.964;6.800;2023-03-14T13:39:10;10.33;;;3.00;;
17604;SDS011;8921;50.964;6.800;2023-03-14T13:41:38;13.57;;;2.80;;
17604;SDS011;8921;50.964;6.800;2023-03-14T13:44:10;12.30;;;2.73;;
17604;SDS011;8921;50.964;6.800;2023-03-14T13:46:37;16.77;;;3.30;;
17604;SDS011;8921;50.964;6.800;2023-03-14T13:49:06;15.43;;;3.30;;
17604;SDS011;8921;50.964;6.800;2023-03-14T13:51:34;9.80;;;1.93;;
17604;SDS011;8921;50.964;6.800;2023-03-14T13:54:02;14.77;;;2.47;;
17604;SDS011;8921;50.964;6.800;2023-03-14T13:56:32;11.77;;;3.17;;
17604;SDS011;8921;50.964;6.800;2023-03-14T13:58:59;12.77;;;3.30;;
17604;SDS011;8921;50.964;6.800;2023-03-14T14:01:34;12.40;;;2.83;;
17604;SDS011;8921;50.964;6.800;2023-03-14T14:04:05;14.60;;;3.43;;
17604;SDS011;8921;50.964;6.800;2023-03-14T14:09:09;10.50;;;2.73;;
17604;SDS011;8921;50.964;6.800;2023-03-14T14:12:17;9.63;;;2.53;;
17604;SDS011;8921;50.964;6.800;2023-03-14T14:14:07;13.53;;;4.40;;
17604;SDS011;8921;50.964;6.800;2023-03-14T14:16:34;10.83;;;2.70;;
17604;SDS011;8921;50.964;6.800;2023-03-14T14:19:02;11.13;;;2.60;;
17604;SDS011;8921;50.964;6.800;2023-03-14T14:21:31;11.40;;;2.83;;
17604;SDS011;8921;50.964;6.800;2023-03-14T14:23:59;16.70;;;2.83;;
17604;SDS011;8921;50.964;6.800;2023-03-14T14:26:27;15.27;;;3.00;;
17604;SDS011;8921;50.964;6.800;2023-03-14T14:29:00;11.60;;;2.47;;
17604;SDS011;8921;50.964;6.800;2023-03-14T14:31:30;8.70;;;3.50;;
17604;SDS011;8921;50.964;6.800;2023-03-14T14:33:59;15.30;;;3.17;;
17604;SDS011;8921;50.964;6.800;2023-03-14T14:36:27;8.27;;;2.47;;
17604;SDS011;8921;50.964;6.800;2023-03-14T14:38:59;6.70;;;2.37;;
17604;SDS011;8921;50.964;6.800;2023-03-14T14:41:26;7.70;;;2.83;;
17604;SDS011;8921;50.964;6.800;2023-03-14T14:43:54;9.23;;;2.47;;
17604;SDS011;8921;50.964;6.800;2023-03-14T14:46:22;17.73;;;3.33;;
17604;SDS011;8921;50.964;6.800;2023-03-14T14:48:54;17.57;;;3.47;;
17604;SDS011;8921;50.964;6.800;2023-03-14T14:51:23;12.20;;;2.30;;
17604;SDS011;8921;50.964;6.800;2023-03-14T14:53:59;14.33;;;3.40;;
17604;SDS011;8921;50.964;6.800;2023-03-14T14:56:19;13.63;;;2.57;;
17604;SDS011;8921;50.964;6.800;2023-03-14T14:58:50;16.30;;;3.67;;
17604;SDS011;8921;50.964;6.800;2023-03-14T15:01:19;8.33;;;2.80;;
17604;SDS011;8921;50.964;6.800;2023-03-14T15:03:50;9.00;;;3.80;;
17604;SDS011;8921;50.964;6.800;2023-03-14T15:06:20;15.87;;;2.73;;
17604;SDS011;8921;50.964;6.800;2023-03-14T15:08:49;22.40;;;3.23;;
17604;SDS011;8921;50.964;6.800;2023-03-14T15:11:18;7.97;;;3.07;;
17604;SDS011;8921;50.964;6.800;2023-03-14T15:13:45;13.57;;;3.20;;
17604;SDS011;8921;50.964;6.800;2023-03-14T15:16:15;17.97;;;4.70;;
17604;SDS011;8921;50.964;6.800;2023-03-14T15:18:42;10.57;;;3.87;;
17604;SDS011;8921;50.964;6.800;2023-03-14T15:21:10;15.33;;;3.83;;
17604;SDS011;8921;50.964;6.800;2023-03-14T15:23:38;13.43;;;3.07;;
17604;SDS011;8921;50.964;6.800;2023-03-14T15:26:13;15.07;;;3.30;;
17604;SDS011;8921;50.964;6.800;2023-03-14T15:28:41;12.13;;;3.30;;
17604;SDS011;8921;50.964;6.800;2023-03-14T15:31:10;13.73;;;3.07;;
17604;SDS011;8921;50.964;6.800;2023-03-14T15:33:38;19.80;;;3.63;;
17604;SDS011;8921;50.964;6.800;2023-03-14T15:36:06;13.53;;;3.90;;
17604;SDS011;8921;50.964;6.800;2023-03-14T15:38:34;16.87;;;3.20;;
17604;SDS011;8921;50.964;6.800;2023-03-14T15:41:03;16.03;;;3.83;;
17604;SDS011;8921;50.964;6.800;2023-03-14T15:43:31;14.80;;;3.70;;
17604;SDS011;8921;50.964;6.800;2023-03-14T15:45:59;14.20;;;3.33;;
17604;SDS011;8921;50.964;6.800;2023-03-14T15:48:27;10.13;;;2.63;;
17604;SDS011;8921;50.964;6.800;2023-03-14T15:50:56;14.20;;;4.50;;
17604;SDS011;8921;50.964;6.800;2023-03-14T15:53:24;12.23;;;3.00;;
17604;SDS011;8921;50.964;6.800;2023-03-14T15:55:52;8.83;;;3.23;;
17604;SDS011;8921;50.964;6.800;2023-03-14T15:58:21;16.93;;;2.73;;
17604;SDS011;8921;50.964;6.800;2023-03-14T16:00:49;10.93;;;4.33;;
17604;SDS011;8921;50.964;6.800;2023-03-14T16:03:17;12.00;;;3.80;;
17604;SDS011;8921;50.964;6.800;2023-03-14T16:05:45;9.30;;;3.37;;
17604;SDS011;8921;50.964;6.800;2023-03-14T16:08:14;9.83;;;3.70;;
17604;SDS011;8921;50.964;6.800;2023-03-14T16:10:42;16.50;;;4.53;;
17604;SDS011;8921;50.964;6.800;2023-03-14T16:13:10;17.70;;;4.30;;
17604;SDS011;8921;50.964;6.800;2023-03-14T16:15:39;13.87;;;2.77;;
17604;SDS011;8921;50.964;6.800;2023-03-14T16:18:07;10.13;;;2.63;;
17604;SDS011;8921;50.964;6.800;2023-03-14T16:20:35;16.37;;;2.60;;
17604;SDS011;8921;50.964;6.800;2023-03-14T16:23:04;11.50;;;2.27;;
17604;SDS011;8921;50.964;6.800;2023-03-14T16:25:32;11.50;;;2.37;;